Time;durP1;ratioP1;P1;durP2;ratioP2;P2;SDS_P1;SDS_P2;PMS_P1;PMS_P2;Temp;Humidity;BMP_temperature;BMP_pressure;BME280_temperature;BME280_humidity;BME280_pressure;Samples;Min_cycle;Max_cycle;Signal;HPM_P1;HPM_P2
2022/09/05 00:03:52;;;;;;;5.10;1.73;;;23.80;29.90;;;;;;20981866;28;20409;-58
2022/09/05 00:14:12;;;;;;;3.42;2.58;;;23.70;30.00;;;;;;20997977;28;20049;-59
2022/09/05 00:24:47;;;;;;;3.83;2.05;;;23.60;30.20;;;;;;20998310;28;20420;-58
2022/09/05 00:35:17;;;;;;;3.17;1.40;;;23.60;30.20;;;;;;20997098;28;20127;-59
2022/09/05 00:45:46;;;;;;;3.03;1.73;;;23.40;29.50;;;;;;20996688;28;20146;-60
2022/09/05 00:56:12;;;;;;;5.47;1.70;;;23.40;29.80;;;;;;20994025;28;20080;-58
2022/09/05 01:06:25;;;;;;;4.78;1.85;;;23.40;29.60;;;;;;20996420;28;20121;-60
2022/09/05 01:16:27;;;;;;;4.63;1.67;;;23.30;29.70;;;;;;20995354;28;20437;-58
2022/09/05 01:26:47;;;;;;;4.72;2.40;;;23.10;30.90;;;;;;20994820;28;20067;-59
2022/09/05 01:37:43;;;;;;;5.15;2.80;;;22.90;31.30;;;;;;20994936;28;20106;-58
2022/09/05 01:48:00;;;;;;;5.50;2.40;;;22.70;31.70;;;;;;20739019;28;20136;-58
2022/09/05 01:58:40;;;;;;;5.85;2.15;;;22.20;33.20;;;;;;20737983;28;20585;-63
2022/09/05 02:09:03;;;;;;;5.03;2.85;;;21.70;33.50;;;;;;20347503;28;20566;-57
2022/09/05 02:19:08;;;;;;;4.60;2.13;;;21.40;34.10;;;;;;20500873;28;20464;-57
2022/09/05 02:29:18;;;;;;;4.68;1.90;;;21.20;34.70;;;;;;20589563;28;20057;-59
2022/09/05 02:39:50;;;;;;;8.30;2.30;;;21.20;34.60;;;;;;20768564;28;20053;-58
2022/09/05 02:50:37;;;;;;;3.85;1.75;;;21.10;35.10;;;;;;21005791;28;20230;-59
2022/09/05 03:00:50;;;;;;;4.43;1.75;;;20.90;35.20;;;;;;21005118;28;20083;-60
2022/09/05 03:11:31;;;;;;;5.05;2.35;;;20.70;35.20;;;;;;21004044;28;20060;-59
2022/09/05 03:22:12;;;;;;;4.63;1.98;;;20.50;35.40;;;;;;21002750;28;20067;-59
2022/09/05 03:32:47;;;;;;;3.67;1.75;;;20.20;36.10;;;;;;21001627;28;20106;-60
2022/09/05 03:43:28;;;;;;;3.38;1.90;;;20.10;36.60;;;;;;21001274;28;20552;-59
2022/09/05 03:53:49;;;;;;;4.47;2.55;;;;;;;;;;21001529;28;20060;-59
2022/09/05 04:03:56;;;;;;;4.28;1.75;;;19.70;36.70;;;;;;20981357;28;20127;-59
2022/09/05 04:14:19;;;;;;;3.58;1.90;;;19.70;36.60;;;;;;20999343;28;20060;-58
2022/09/05 04:24:43;;;;;;;6.30;1.90;;;19.40;36.50;;;;;;20987881;28;20487;-57
2022/09/05 04:34:50;;;;;;;4.20;1.93;;;19.10;36.80;;;;;;20996975;28;20052;-59
2022/09/05 04:45:01;;;;;;;8.13;2.03;;;19.00;37.30;;;;;;20996929;28;20063;-59
2022/09/05 04:55:24;;;;;;;5.93;2.30;;;18.80;37.70;;;;;;20996824;28;20128;-60
2022/09/05 05:05:41;;;;;;;5.07;2.20;;;18.90;37.70;;;;;;20996004;28;20048;-58
2022/09/05 05:15:50;;;;;;;5.40;2.40;;;18.80;37.60;;;;;;20996227;28;20331;-59
2022/09/05 05:25:57;;;;;;;5.13;2.28;;;18.90;37.60;;;;;;20995354;28;20486;-58
2022/09/05 05:36:01;;;;;;;5.50;1.88;;;19.00;37.20;;;;;;20994711;28;20084;-58
2022/09/05 05:46:03;;;;;;;;;;;19.00;36.90;;;;;;21008611;28;20071;-58
2022/09/05 05:56:31;;;;;;;7.40;2.10;;;18.70;37.30;;;;;;21009937;28;20030;-57
2022/09/05 06:06:57;;;;;;;6.28;2.90;;;18.90;37.20;;;;;;21009633;28;20404;-60
2022/09/05 06:17:24;;;;;;;9.07;3.22;;;18.70;37.60;;;;;;21008624;28;20094;-58
2022/09/05 06:27:52;;;;;;;10.10;2.92;;;18.80;37.50;;;;;;20751608;28;20060;-59
2022/09/05 06:38:25;;;;;;;8.60;2.35;;;18.80;37.60;;;;;;20750895;28;20054;-60
2022/09/05 06:48:41;;;;;;;7.50;2.45;;;18.90;37.70;;;;;;20749588;28;20552;-60
2022/09/05 06:59:05;;;;;;;12.43;3.80;;;19.00;37.60;;;;;;20827157;28;20048;-61
2022/09/05 07:09:40;;;;;;;12.10;3.72;;;19.40;37.20;;;;;;21004496;28;20475;-60
2022/09/05 07:20:02;;;;;;;11.15;2.95;;;19.70;36.80;;;;;;21003063;28;20049;-60
2022/09/05 07:30:05;;;;;;;12.93;3.17;;;20.00;36.50;;;;;;21002315;28;20094;-60
2022/09/05 07:40:09;;;;;;;;;;;20.30;36.30;;;;;;21001523;28;20053;-58
2022/09/05 07:50:12;;;;;;;10.23;3.13;;;20.50;35.80;;;;;;20999917;28;20026;-59
2022/09/05 08:00:18;;;;;;;8.82;3.08;;;20.90;34.60;;;;;;20999995;28;20060;-60
2022/09/05 08:10:31;;;;;;;11.18;4.10;;;21.30;34.00;;;;;;20999665;28;20060;-60
2022/09/05 08:21:12;;;;;;;10.88;3.00;;;21.90;33.80;;;;;;20998530;28;20059;-61
2022/09/05 08:31:25;;;;;;;12.10;3.42;;;22.30;33.70;;;;;;20997222;28;20048;-59
2022/09/05 08:41:34;;;;;;;16.13;4.85;;;22.70;33.10;;;;;;20996228;28;20447;-58
2022/09/05 08:51:39;;;;;;;15.05;2.80;;;23.00;33.30;;;;;;20996058;28;20044;-59
2022/09/05 09:01:41;;;;;;;9.00;2.70;;;23.20;33.50;;;;;;20995540;28;20556;-59
2022/09/05 09:12:23;;;;;;;10.68;2.80;;;23.70;33.60;;;;;;20995332;28;20118;-58
2022/09/05 09:22:53;;;;;;;11.63;3.40;;;24.10;33.60;;;;;;20995120;28;20048;-59
2022/09/05 09:33:01;;;;;;;7.25;2.67;;;24.30;33.30;;;;;;20995697;28;20400;-58
2022/09/05 09:43:17;;;;;;;3.15;1.65;;;24.60;34.00;;;;;;20994369;28;20057;-57
2022/09/05 09:53:36;;;;;;;7.43;1.95;;;24.80;34.50;;;;;;20994965;28;20047;-59
2022/09/05 10:03:50;;;;;;;4.47;1.77;;;24.90;35.30;;;;;;20993514;28;20052;-58
2022/09/05 10:14:37;;;;;;;6.53;1.77;;;25.10;35.50;;;;;;20993393;28;20472;-59
2022/09/05 10:25:07;;;;;;;4.28;1.73;;;25.50;34.70;;;;;;20994448;28;20390;-58
2022/09/05 10:35:36;;;;;;;5.30;2.15;;;25.70;34.30;;;;;;21007030;28;20044;-60
2022/09/05 10:46:07;;;;;;;6.75;1.83;;;26.00;33.50;;;;;;21004290;28;20090;-60
2022/09/05 10:56:22;;;;;;;6.73;2.33;;;26.00;33.00;;;;;;20999737;28;20097;-58
2022/09/05 11:07:12;;;;;;;4.45;2.00;;;26.10;32.80;;;;;;21005039;28;20087;-59
2022/09/05 11:17:51;;;;;;;5.50;1.83;;;26.40;32.60;;;;;;20748304;28;20088;-58
2022/09/05 11:27:56;;;;;;;5.55;1.60;;;26.60;33.00;;;;;;20748370;28;20069;-58
2022/09/05 11:37:58;;;;;;;4.05;1.60;;;26.80;32.50;;;;;;20721364;28;20046;-59
2022/09/05 11:48:02;;;;;;;;;;;27.10;32.60;;;;;;20725541;28;20064;-61
2022/09/05 11:58:39;;;;;;;4.50;1.85;;;27.30;31.80;;;;;;20835359;28;19978;-59
2022/09/05 12:09:13;;;;;;;6.07;1.90;;;27.30;31.20;;;;;;20835199;28;20053;-60
2022/09/05 12:19:21;;;;;;;7.20;3.97;;;27.50;29.40;;;;;;20834209;28;20478;-59
2022/09/05 12:29:26;;;;;;;5.97;1.85;;;27.60;30.50;;;;;;20833774;28;20080;-58
2022/09/05 12:39:43;;;;;;;5.28;1.63;;;27.60;30.50;;;;;;20907490;28;20139;-59
2022/09/05 12:50:06;;;;;;;3.60;1.38;;;27.80;30.70;;;;;;20998342;28;20166;-59
2022/09/05 13:00:12;;;;;;;4.93;1.63;;;28.10;29.40;;;;;;20997607;28;20052;-60
2022/09/05 13:10:13;;;;;;;5.72;1.52;;;28.10;28.70;;;;;;20997084;28;20048;-62
2022/09/05 13:20:36;;;;;;;3.88;1.50;;;28.20;27.40;;;;;;20995835;28;20052;-58
2022/09/05 13:30:52;;;;;;;4.95;2.47;;;28.20;26.10;;;;;;20995223;28;20079;-58
2022/09/05 13:40:58;;;;;;;2.55;1.20;;;28.40;26.60;;;;;;20997224;28;20088;-59
2022/09/05 13:51:26;;;;;;;2.65;1.45;;;28.50;26.20;;;;;;20995383;28;20053;-60
2022/09/05 14:01:54;;;;;;;3.30;1.63;;;28.60;26.00;;;;;;20998347;28;20240;-59
2022/09/05 14:12:24;;;;;;;3.75;1.40;;;28.70;26.30;;;;;;21009793;28;20061;-60
2022/09/05 14:23:06;;;;;;;2.53;1.47;;;28.80;24.60;;;;;;21009309;28;20553;-59
2022/09/05 14:33:32;;;;;;;3.10;1.25;;;28.70;25.70;;;;;;20751637;28;20083;-58
2022/09/05 14:44:04;;;;;;;5.15;1.30;;;28.90;24.00;;;;;;20751319;28;20137;-59
2022/09/05 14:54:21;;;;;;;2.28;1.10;;;28.90;21.20;;;;;;20750468;28;20053;-58
2022/09/05 15:04:37;;;;;;;6.40;1.60;;;29.00;21.40;;;;;;20987357;28;20052;-60
2022/09/05 15:14:48;;;;;;;4.80;1.00;;;29.10;22.00;;;;;;21004021;28;20055;-59
2022/09/05 15:25:11;;;;;;;;;;;29.10;21.00;;;;;;21005049;28;20416;-59
2022/09/05 15:35:32;;;;;;;;;;;29.00;22.60;;;;;;21002384;28;19920;-59
2022/09/05 15:45:36;;;;;;;3.70;1.00;;;29.10;23.10;;;;;;21001738;28;19928;-60
2022/09/05 15:55:47;;;;;;;4.45;1.30;;;29.10;22.10;;;;;;21001790;28;20051;-60
2022/09/05 16:06:05;;;;;;;2.43;1.27;;;29.10;23.90;;;;;;21000830;28;20056;-58
2022/09/05 16:16:13;;;;;;;3.15;1.10;;;29.10;22.70;;;;;;20999519;28;20047;-58
2022/09/05 16:26:23;;;;;;;2.78;1.20;;;29.10;23.20;;;;;;20998216;28;20080;-58
2022/09/05 16:36:31;;;;;;;2.78;1.30;;;29.00;24.00;;;;;;20998033;28;20135;-59
2022/09/05 16:46:35;;;;;;;2.78;1.45;;;29.10;25.00;;;;;;20997467;28;20461;-59
2022/09/05 16:56:54;;;;;;;4.75;1.50;;;28.90;26.00;;;;;;20996013;28;20045;-58
2022/09/05 17:07:06;;;;;;;2.75;1.60;;;28.80;25.80;;;;;;20977975;28;20056;-60
2022/09/05 17:17:25;;;;;;;3.47;1.38;;;28.70;26.40;;;;;;20995848;28;20049;-59
2022/09/05 17:27:28;;;;;;;7.78;1.60;;;28.60;25.90;;;;;;20995242;28;20048;-61
2022/09/05 17:37:45;;;;;;;3.08;1.52;;;28.40;26.60;;;;;;21000972;28;20095;-59
2022/09/05 17:47:50;;;;;;;3.92;1.55;;;28.20;27.60;;;;;;21010827;28;20052;-59
2022/09/05 17:58:29;;;;;;;5.43;1.50;;;28.10;27.90;;;;;;21011546;28;20475;-60
2022/09/05 18:08:49;;;;;;;5.15;1.80;;;27.90;28.30;;;;;;21009690;28;20052;-59
2022/09/05 18:18:51;;;;;;;4.10;1.40;;;27.70;28.50;;;;;;21009015;28;20044;-59
2022/09/05 18:29:04;;;;;;;5.07;1.60;;;27.60;27.00;;;;;;21007426;28;20083;-58
2022/09/05 18:39:24;;;;;;;4.15;1.38;;;27.30;28.30;;;;;;21007355;28;20065;-58
2022/09/05 18:49:36;;;;;;;6.50;2.10;;;27.20;29.50;;;;;;21008142;28;20048;-61
2022/09/05 18:59:48;;;;;;;7.90;2.80;;;27.10;30.20;;;;;;21007101;28;20048;-60
2022/09/05 19:10:08;;;;;;;4.00;2.10;;;26.90;30.80;;;;;;21006516;28;20075;-59
2022/09/05 19:20:18;;;;;;;5.38;2.60;;;26.90;30.90;;;;;;21005148;28;20048;-60
2022/09/05 19:30:23;;;;;;;7.88;2.53;;;26.70;31.50;;;;;;21003603;28;20052;-63
2022/09/05 19:40:34;;;;;;;4.32;2.40;;;26.60;31.70;;;;;;21002527;28;20056;-61
2022/09/05 19:50:36;;;;;;;4.37;2.00;;;26.60;32.30;;;;;;21000869;28;20080;-60
2022/09/05 20:00:38;;;;;;;;;;;26.40;32.60;;;;;;21000275;28;20053;-60
2022/09/05 20:10:40;;;;;;;4.43;1.70;;;26.20;32.80;;;;;;21000788;28;20329;-59
2022/09/05 20:21:28;;;;;;;4.05;1.77;;;26.20;33.40;;;;;;20998879;28;20477;-59
2022/09/05 20:31:33;;;;;;;3.65;1.38;;;26.00;34.20;;;;;;20742298;28;20165;-59
2022/09/05 20:41:37;;;;;;;4.13;1.73;;;25.70;35.50;;;;;;20741646;28;20227;-58
2022/09/05 20:51:49;;;;;;;11.20;4.60;;;25.50;36.90;;;;;;20741228;28;20056;-58
2022/09/05 21:02:02;;;;;;;6.10;1.77;;;25.40;37.70;;;;;;20873798;28;20435;-60
2022/09/05 21:12:07;;;;;;;4.68;1.35;;;25.30;38.30;;;;;;20995815;28;20577;-59
2022/09/05 21:22:15;;;;;;;4.22;1.10;;;25.10;39.30;;;;;;20995635;28;20051;-59
2022/09/05 21:32:19;;;;;;;1.88;1.08;;;24.90;40.00;;;;;;20994805;28;20091;-59
2022/09/05 21:42:21;;;;;;;4.10;1.10;;;24.80;40.50;;;;;;20994867;28;20544;-58
2022/09/05 21:52:25;;;;;;;6.35;1.63;;;24.80;40.60;;;;;;20994529;28;20515;-59
2022/09/05 22:02:28;;;;;;;2.40;1.30;;;24.70;40.90;;;;;;20994737;28;20428;-59
2022/09/05 22:12:32;;;;;;;4.38;1.42;;;24.70;41.10;;;;;;20994739;28;20047;-61
2022/09/05 22:22:37;;;;;;;3.72;1.38;;;24.50;41.50;;;;;;20997375;28;20048;-60
2022/09/05 22:32:39;;;;;;;2.72;1.00;;;24.50;41.50;;;;;;21009059;28;20080;-60
2022/09/05 22:42:41;;;;;;;3.13;1.10;;;24.30;41.80;;;;;;21007210;28;20143;-59
2022/09/05 22:52:42;;;;;;;2.73;1.00;;;24.10;42.10;;;;;;20988400;28;20045;-59
2022/09/05 23:02:44;;;;;;;1.67;0.90;;;24.10;42.10;;;;;;21005552;28;20094;-58
2022/09/05 23:12:46;;;;;;;2.90;1.20;;;24.00;42.30;;;;;;21005329;28;20321;-60
2022/09/05 23:22:48;;;;;;;4.17;1.30;;;23.90;42.60;;;;;;21005278;28;20057;-59
2022/09/05 23:32:50;;;;;;;3.37;1.10;;;23.80;42.70;;;;;;21003097;28;20045;-59
2022/09/05 23:42:57;;;;;;;4.93;1.73;;;23.70;42.80;;;;;;21002599;28;20052;-58
2022/09/05 23:53:02;;;;;;;1.92;0.90;;;23.80;42.80;;;;;;21002649;28;20413;-59
